Time;durP1;ratioP1;P1;durP2;ratioP2;P2;SDS_P1;SDS_P2;PMS_P1;PMS_P2;Temp;Humidity;BMP_temperature;BMP_pressure;BME280_temperature;BME280_humidity;BME280_pressure;Samples;Min_cycle;Max_cycle;Signal;HPM_P1;HPM_P2
2024/04/20 00:02:20;;;;;;;;;;;6.70;1.00;;;;;;5396244;26;19930;-85
2024/04/20 00:04:48;;;;;;;;;;;6.60;1.00;;;;;;5395259;26;19937;-84
2024/04/20 00:07:15;;;;;;;;;;;6.60;1.00;;;;;;5377923;26;19976;-82
2024/04/20 00:09:43;;;;;;;;;;;6.60;1.00;;;;;;5393053;26;19975;-84
2024/04/20 00:12:16;;;;;;;;;;;6.60;1.00;;;;;;5394739;26;19930;-84
2024/04/20 00:14:41;;;;;;;;;;;6.50;1.00;;;;;;5394098;26;19933;-84
2024/04/20 00:17:12;;;;;;;;;;;6.50;1.00;;;;;;5395707;26;19937;-84
2024/04/20 00:19:40;;;;;;;;;;;6.50;1.00;;;;;;5394734;26;19941;-82
2024/04/20 00:22:06;;;;;;;;;;;6.50;1.00;;;;;;5395713;26;19937;-83
2024/04/20 00:24:31;;;;;;;;;;;6.50;1.00;;;;;;5384868;26;19930;-84
2024/04/20 00:26:57;;;;;;;;;;;6.50;1.00;;;;;;5381351;26;19941;-85
2024/04/20 00:29:30;;;;;;;;;;;6.40;1.00;;;;;;5395354;26;19929;-84
2024/04/20 00:32:06;;;;;;;;;;;6.40;1.00;;;;;;5394185;26;19930;-85
2024/04/20 00:34:31;;;;;;;;;;;6.40;1.00;;;;;;5381253;26;19929;-85
2024/04/20 00:36:59;;;;;;;;;;;6.30;1.00;;;;;;5394844;26;19934;-83
2024/04/20 00:39:27;;;;;;;;;;;6.30;1.00;;;;;;5395445;26;19929;-83
2024/04/20 00:41:56;;;;;;;;;;;6.30;1.00;;;;;;5390294;26;19934;-82
2024/04/20 00:44:24;;;;;;;;;;;6.20;1.00;;;;;;5388233;26;20383;-84
2024/04/20 00:46:51;;;;;;;;;;;6.20;1.00;;;;;;5395155;26;19930;-83
2024/04/20 00:49:16;;;;;;;;;;;6.20;1.00;;;;;;5396281;26;19929;-85
2024/04/20 00:51:45;;;;;;;;;;;6.20;1.00;;;;;;5398256;26;19933;-84
2024/04/20 00:54:11;;;;;;;;;;;6.20;1.00;;;;;;5398834;26;20380;-84
2024/04/20 00:56:40;;;;;;;;;;;6.20;1.00;;;;;;5397684;26;19933;-84
2024/04/20 00:59:09;;;;;;;;;;;6.20;1.00;;;;;;5398128;26;19929;-83
2024/04/20 01:01:44;;;;;;;;;;;;;;;;;;;;;
2024/04/20 01:04:26;;;;;;;;;;;;;;;;;;;;;
2024/04/20 01:06:54;;;;;;;;;;;6.10;1.00;;;;;;5395879;26;19929;-84
2024/04/20 01:09:33;;;;;;;;;;;6.10;1.00;;;;;;5398658;26;19976;-84
2024/04/20 01:12:01;;;;;;;;;;;6.10;1.00;;;;;;5400114;26;19941;-83
2024/04/20 01:14:29;;;;;;;;;;;6.10;1.00;;;;;;5390417;26;20272;-82
2024/04/20 01:16:55;;;;;;;;;;;6.10;1.00;;;;;;5386954;26;20284;-82
2024/04/20 01:19:31;;;;;;;;;;;6.00;1.00;;;;;;5377632;26;19980;-81
2024/04/20 01:21:57;;;;;;;;;;;6.00;1.00;;;;;;5379329;26;19930;-82
2024/04/20 01:24:24;;;;;;;;;;;5.90;1.00;;;;;;5381407;26;19937;-81
2024/04/20 01:26:56;;;;;;;;;;;5.90;1.00;;;;;;5385061;26;19976;-83
2024/04/20 01:29:21;;;;;;;;;;;5.90;1.00;;;;;;5394121;26;19933;-83
2024/04/20 01:31:47;;;;;;;;;;;5.80;1.00;;;;;;5395798;26;19936;-85
2024/04/20 01:34:15;;;;;;;;;;;5.80;1.00;;;;;;5389932;26;19937;-83
2024/04/20 01:36:43;;;;;;;;;;;5.90;3.00;;;;;;5376011;26;19936;-83
2024/04/20 01:39:08;;;;;;;;;;;5.90;5.40;;;;;;5395417;26;19962;-82
2024/04/20 01:41:33;;;;;;;;;;;5.90;7.50;;;;;;5424303;26;19938;-83
2024/04/20 01:44:02;;;;;;;;;;;5.90;9.10;;;;;;5396203;26;19934;-85
2024/04/20 01:46:32;;;;;;;;;;;5.90;9.50;;;;;;5395639;26;19956;-84
2024/04/20 01:49:00;;;;;;;;;;;6.00;10.00;;;;;;5397308;26;19929;-85
2024/04/20 01:51:43;;;;;;;;;;;6.00;9.00;;;;;;5398353;26;19996;-83
2024/04/20 01:54:11;;;;;;;;;;;6.10;9.70;;;;;;5397935;26;19937;-83
2024/04/20 01:56:39;;;;;;;;;;;6.10;10.00;;;;;;5396767;26;19929;-83
2024/04/20 01:59:11;;;;;;;;;;;6.10;10.60;;;;;;5414748;26;19937;-82
2024/04/20 02:01:45;;;;;;;;;;;6.20;10.10;;;;;;5397678;26;19921;-81
2024/04/20 02:04:11;;;;;;;;;;;6.20;9.60;;;;;;5397471;26;19929;-83
2024/04/20 02:06:43;;;;;;;;;;;6.20;10.80;;;;;;5397790;26;19930;-83
2024/04/20 02:09:11;;;;;;;;;;;6.20;11.20;;;;;;5397207;26;19936;-83
2024/04/20 02:11:36;;;;;;;;;;;6.20;12.40;;;;;;5396345;26;19949;-84
2024/04/20 02:14:02;;;;;;;;;;;6.20;13.40;;;;;;5395843;26;19995;-82
2024/04/20 02:16:34;;;;;;;;;;;6.30;14.00;;;;;;5393068;26;19929;-81
2024/04/20 02:18:59;;;;;;;;;;;6.30;13.80;;;;;;5391703;26;19940;-83
2024/04/20 02:21:26;;;;;;;;;;;6.30;14.50;;;;;;5396719;26;19937;-82
2024/04/20 02:23:51;;;;;;;;;;;6.30;12.80;;;;;;5398619;26;19936;-85
2024/04/20 02:26:17;;;;;;;;;;;6.30;10.20;;;;;;5397102;26;19930;-83
2024/04/20 02:28:42;;;;;;;;;;;6.30;10.00;;;;;;5396293;26;19937;-83
2024/04/20 02:31:08;;;;;;;;;;;6.30;9.60;;;;;;5397241;26;19936;-83
2024/04/20 02:33:34;;;;;;;;;;;6.30;5.90;;;;;;5384082;26;19942;-83
2024/04/20 02:36:05;;;;;;;;;;;6.30;2.40;;;;;;5396177;26;19933;-82
2024/04/20 02:38:33;;;;;;;;;;;6.30;2.00;;;;;;5395570;26;19929;-81
2024/04/20 02:40:59;;;;;;;;;;;6.30;2.90;;;;;;5414354;26;20318;-83
2024/04/20 02:43:24;;;;;;;;;;;6.40;1.20;;;;;;5396714;26;19937;-84
2024/04/20 02:45:50;;;;;;;;;;;6.30;1.00;;;;;;5396671;26;19930;-82
2024/04/20 02:48:15;;;;;;;;;;;6.40;1.00;;;;;;5397140;26;19961;-83
2024/04/20 02:50:41;;;;;;;;;;;6.40;1.00;;;;;;5381291;26;19936;-81
2024/04/20 02:53:07;;;;;;;;;;;6.40;1.00;;;;;;5396239;26;19936;-84
2024/04/20 02:55:32;;;;;;;;;;;6.40;1.00;;;;;;5395802;26;19975;-83
2024/04/20 02:57:58;;;;;;;;;;;6.40;1.00;;;;;;5396801;26;19928;-82
2024/04/20 03:00:25;;;;;;;;;;;6.40;1.00;;;;;;5390670;26;19936;-84
2024/04/20 03:02:53;;;;;;;;;;;6.40;1.00;;;;;;5392286;26;19930;-84
2024/04/20 03:05:19;;;;;;;;;;;6.40;1.00;;;;;;5382478;26;20260;-81
2024/04/20 03:07:45;;;;;;;;;;;6.40;1.00;;;;;;5397081;26;19936;-83
2024/04/20 03:10:10;;;;;;;;;;;6.40;1.00;;;;;;5388783;26;19936;-82
2024/04/20 03:12:36;;;;;;;;;;;6.40;1.00;;;;;;5394813;26;19976;-84
2024/04/20 03:15:07;;;;;;;;;;;6.40;1.00;;;;;;5397917;26;19937;-80
2024/04/20 03:17:35;;;;;;;;;;;6.40;1.00;;;;;;5397226;26;19975;-84
2024/04/20 03:20:01;;;;;;;;;;;6.40;1.00;;;;;;5385673;26;19941;-82
2024/04/20 03:22:26;;;;;;;;;;;6.40;1.00;;;;;;5389152;26;19929;-84
2024/04/20 03:24:52;;;;;;;;;;;6.40;1.00;;;;;;5396457;26;19934;-83
2024/04/20 03:27:23;;;;;;;;;;;6.40;1.00;;;;;;5395029;26;20437;-83
2024/04/20 03:29:48;;;;;;;;;;;6.40;1.00;;;;;;5395276;26;19937;-84
2024/04/20 03:32:14;;;;;;;;;;;6.40;1.00;;;;;;5397081;26;19957;-82
2024/04/20 03:34:39;;;;;;;;;;;6.40;1.00;;;;;;5396588;26;19937;-82
2024/04/20 03:37:19;;;;;;;;;;;6.40;1.00;;;;;;5391615;26;19943;-81
2024/04/20 03:39:45;;;;;;;;;;;6.40;1.00;;;;;;5393118;26;19929;-82
2024/04/20 03:42:10;;;;;;;;;;;6.40;1.00;;;;;;5392259;26;20396;-81
2024/04/20 03:44:36;;;;;;;;;;;6.40;1.00;;;;;;5389448;26;19937;-81
2024/04/20 03:47:03;;;;;;;;;;;6.40;1.00;;;;;;5392726;26;19937;-83
2024/04/20 03:49:37;;;;;;;;;;;6.40;1.00;;;;;;5390168;26;19937;-82
2024/04/20 03:52:03;;;;;;;;;;;6.40;1.00;;;;;;5391179;26;19936;-81
2024/04/20 03:54:37;;;;;;;;;;;6.40;1.00;;;;;;5388756;26;19930;-81
2024/04/20 03:57:03;;;;;;;;;;;6.40;1.00;;;;;;5389821;26;19929;-83
2024/04/20 03:59:39;;;;;;;;;;;6.40;1.00;;;;;;5388249;26;19937;-83
2024/04/20 04:02:04;;;;;;;;;;;6.40;1.00;;;;;;5390411;26;19936;-81
2024/04/20 04:04:34;;;;;;;;;;;6.40;1.00;;;;;;5389115;26;19929;-81
2024/04/20 04:07:00;;;;;;;;;;;6.30;1.00;;;;;;5419755;26;19957;-81
2024/04/20 04:09:25;;;;;;;;;;;6.30;1.00;;;;;;5391072;26;19937;-83
2024/04/20 04:11:51;;;;;;;;;;;6.40;1.00;;;;;;5376347;26;19930;-81
2024/04/20 04:14:16;;;;;;;;;;;6.40;1.00;;;;;;5389135;26;20003;-83
2024/04/20 04:19:36;;;;;;;;;;;6.40;1.00;;;;;;5393236;26;19930;-83
2024/04/20 04:22:08;;;;;;;;;;;6.40;1.00;;;;;;5398553;26;19949;-84
2024/04/20 04:24:45;;;;;;;;;;;6.40;1.00;;;;;;5394058;26;19941;-84
2024/04/20 04:27:17;;;;;;;;;;;6.40;1.00;;;;;;5379090;26;19934;-80
2024/04/20 04:29:42;;;;;;;;;;;6.40;1.00;;;;;;5395317;26;19929;-83
2024/04/20 04:32:09;;;;;;;;;;;6.40;1.00;;;;;;5397104;26;19936;-84
2024/04/20 04:34:38;;;;;;;;;;;6.40;1.00;;;;;;5398595;26;19937;-83
2024/04/20 04:37:04;;;;;;;;;;;6.40;1.00;;;;;;5395659;26;19938;-82
2024/04/20 04:39:33;;;;;;;;;;;6.40;1.00;;;;;;5392007;26;20011;-83
2024/04/20 04:42:01;;;;;;;;;;;6.40;1.00;;;;;;5394515;26;19942;-83
2024/04/20 04:44:27;;;;;;;;;;;6.30;1.00;;;;;;5391257;26;19937;-84
2024/04/20 04:47:01;;;;;;;;;;;6.30;1.00;;;;;;5380723;26;19929;-83
2024/04/20 04:49:26;;;;;;;;;;;6.30;1.00;;;;;;5396364;26;19984;-83
2024/04/20 04:51:52;;;;;;;;;;;6.30;1.00;;;;;;5393805;26;19938;-82
2024/04/20 04:54:17;;;;;;;;;;;6.40;1.00;;;;;;5396646;26;19937;-83
2024/04/20 04:56:43;;;;;;;;;;;6.40;1.00;;;;;;5395813;26;19937;-83
2024/04/20 04:59:11;;;;;;;;;;;6.40;1.00;;;;;;5394635;26;19929;-82
2024/04/20 05:01:41;;;;;;;;;;;6.40;1.00;;;;;;5396209;26;19929;-81
2024/04/20 05:04:06;;;;;;;;;;;6.40;1.00;;;;;;5375620;26;19976;-81
2024/04/20 05:06:49;;;;;;;;;;;6.40;1.00;;;;;;5390083;26;19938;-83
2024/04/20 05:09:15;;;;;;;;;;;6.40;1.00;;;;;;5393980;26;19929;-82
2024/04/20 05:11:40;;;;;;;;;;;6.50;1.00;;;;;;5392388;26;20007;-83
2024/04/20 05:14:06;;;;;;;;;;;6.50;1.00;;;;;;5384399;26;20347;-81
2024/04/20 05:16:41;;;;;;;;;;;6.60;1.00;;;;;;5387500;26;19936;-82
2024/04/20 05:19:07;;;;;;;;;;;6.60;1.00;;;;;;5392393;26;19933;-83
2024/04/20 05:21:40;;;;;;;;;;;6.60;1.00;;;;;;5388314;26;19936;-82
2024/04/20 05:24:05;;;;;;;;;;;6.70;1.00;;;;;;5392516;26;19945;-81
2024/04/20 05:26:41;;;;;;;;;;;6.70;1.00;;;;;;5393381;26;19933;-83
2024/04/20 05:29:09;;;;;;;;;;;6.80;1.00;;;;;;5395574;26;19936;-83
2024/04/20 05:31:38;;;;;;;;;;;6.80;1.00;;;;;;5395364;26;19936;-82
2024/04/20 05:34:03;;;;;;;;;;;6.90;1.00;;;;;;5394665;26;19929;-83
2024/04/20 05:36:29;;;;;;;;;;;6.90;1.00;;;;;;5394957;26;20379;-83
2024/04/20 05:38:54;;;;;;;;;;;7.00;1.00;;;;;;5380024;26;20009;-81
2024/04/20 05:41:20;;;;;;;;;;;7.00;1.00;;;;;;5412260;26;19975;-82
2024/04/20 05:43:51;;;;;;;;;;;7.00;1.00;;;;;;5391008;26;19929;-82
2024/04/20 05:46:17;;;;;;;;;;;7.10;1.00;;;;;;5370390;26;19929;-81
2024/04/20 05:48:43;;;;;;;;;;;7.10;1.00;;;;;;5387099;26;19935;-80
2024/04/20 05:51:13;;;;;;;;;;;7.20;1.00;;;;;;5386192;26;19961;-81
2024/04/20 05:53:39;;;;;;;;;;;7.20;1.00;;;;;;5386330;26;19999;-81
2024/04/20 05:56:05;;;;;;;;;;;7.30;1.00;;;;;;5394435;26;19930;-84
2024/04/20 05:58:30;;;;;;;;;;;7.40;1.00;;;;;;5389011;26;19936;-83
2024/04/20 06:00:56;;;;;;;;;;;7.50;1.00;;;;;;5382205;26;20417;-81
2024/04/20 06:03:21;;;;;;;;;;;7.70;99.90;;;;;;5378084;26;19937;-83
2024/04/20 06:05:48;;;;;;;;;;;8.00;99.90;;;;;;5383898;26;19930;-84
2024/04/20 06:08:14;;;;;;;;;;;8.40;1.00;;;;;;5396671;26;19954;-82
2024/04/20 06:10:39;;;;;;;;;;;8.60;1.00;;;;;;5394753;26;19930;-83
2024/04/20 06:13:05;;;;;;;;;;;8.60;1.00;;;;;;5396889;26;19936;-85
2024/04/20 06:15:33;;;;;;;;;;;8.60;1.00;;;;;;5398018;26;19930;-83
2024/04/20 06:17:59;;;;;;;;;;;8.70;1.00;;;;;;5396935;26;19965;-83
2024/04/20 06:20:25;;;;;;;;;;;8.70;1.00;;;;;;5397183;26;20293;-83
2024/04/20 06:22:50;;;;;;;;;;;8.90;1.00;;;;;;5390330;26;19929;-81
2024/04/20 06:25:16;;;;;;;;;;;9.00;1.00;;;;;;5388535;26;19998;-83
2024/04/20 06:27:41;;;;;;;;;;;9.10;1.00;;;;;;5394416;26;19929;-84
2024/04/20 06:30:09;;;;;;;;;;;9.30;1.00;;;;;;5394875;26;20315;-83
2024/04/20 06:32:34;;;;;;;;;;;9.40;99.90;;;;;;5389159;26;19938;-83
2024/04/20 06:35:00;;;;;;;;;;;9.50;48.70;;;;;;5392817;26;19930;-83
2024/04/20 06:37:25;;;;;;;;;;;9.60;1.00;;;;;;5396410;26;19929;-84
2024/04/20 06:39:51;;;;;;;;;;;9.60;28.30;;;;;;5387529;26;19930;-83
2024/04/20 06:42:17;;;;;;;;;;;9.50;99.90;;;;;;5378151;26;19934;-81
2024/04/20 06:44:47;;;;;;;;;;;9.50;20.60;;;;;;5390642;26;19930;-82
2024/04/20 06:47:12;;;;;;;;;;;9.40;99.90;;;;;;5393214;26;19929;-83
2024/04/20 06:49:38;;;;;;;;;;;9.50;99.90;;;;;;5393930;26;19980;-82
2024/04/20 06:52:03;;;;;;;;;;;9.50;1.00;;;;;;5389370;26;19930;-83
2024/04/20 06:54:32;;;;;;;;;;;9.30;1.00;;;;;;5389053;26;19976;-83
2024/04/20 06:56:57;;;;;;;;;;;9.20;99.90;;;;;;5385166;26;19930;-82
2024/04/20 06:59:24;;;;;;;;;;;9.20;1.00;;;;;;5382011;26;19940;-81
2024/04/20 07:01:49;;;;;;;;;;;9.20;35.20;;;;;;5379749;26;19937;-81
2024/04/20 07:04:14;;;;;;;;;;;9.30;1.00;;;;;;5380815;26;19929;-83
2024/04/20 07:06:40;;;;;;;;;;;9.30;99.90;;;;;;5372948;26;19930;-81
2024/04/20 07:09:05;;;;;;;;;;;9.30;1.00;;;;;;5381005;26;19934;-81
2024/04/20 07:11:31;;;;;;;;;;;9.30;1.00;;;;;;5381857;26;20394;-81
2024/04/20 07:13:57;;;;;;;;;;;9.40;99.90;;;;;;5380801;26;20398;-82
2024/04/20 07:16:22;;;;;;;;;;;9.50;1.00;;;;;;5383742;26;19999;-84
2024/04/20 07:18:48;;;;;;;;;;;9.70;99.90;;;;;;5395156;26;19936;-83
2024/04/20 07:21:13;;;;;;;;;;;9.90;99.90;;;;;;5387758;26;19930;-83
2024/04/20 07:23:39;;;;;;;;;;;9.80;99.90;;;;;;5373227;26;19936;-83
2024/04/20 07:26:05;;;;;;;;;;;9.80;99.90;;;;;;5395543;26;19997;-84
2024/04/20 07:28:31;;;;;;;;;;;9.70;99.90;;;;;;5394333;26;19929;-85
2024/04/20 07:30:56;;;;;;;;;;;9.70;99.90;;;;;;5395622;26;19929;-81
2024/04/20 07:33:24;;;;;;;;;;;9.70;99.90;;;;;;5395313;26;20404;-85
2024/04/20 07:35:49;;;;;;;;;;;9.70;99.90;;;;;;5384913;26;20438;-86
2024/04/20 07:38:15;;;;;;;;;;;9.80;1.00;;;;;;5394835;26;19941;-84
2024/04/20 07:40:42;;;;;;;;;;;9.80;18.90;;;;;;5381724;26;20264;-83
2024/04/20 07:43:08;;;;;;;;;;;9.90;99.90;;;;;;5393784;26;19976;-84
2024/04/20 07:45:34;;;;;;;;;;;10.10;99.90;;;;;;5395369;26;19937;-85
2024/04/20 07:48:00;;;;;;;;;;;10.20;1.00;;;;;;5396413;26;20046;-84
2024/04/20 07:50:25;;;;;;;;;;;10.30;99.90;;;;;;5395545;26;19940;-84
2024/04/20 07:52:51;;;;;;;;;;;10.30;99.90;;;;;;5391331;26;19929;-84
2024/04/20 07:55:17;;;;;;;;;;;10.40;99.90;;;;;;5385438;26;19934;-84
2024/04/20 07:57:44;;;;;;;;;;;10.40;99.90;;;;;;5415463;26;19937;-83
2024/04/20 08:00:10;;;;;;;;;;;10.60;99.90;;;;;;5392202;26;19934;-83
2024/04/20 08:02:36;;;;;;;;;;;10.70;99.90;;;;;;5384262;26;19930;-83
2024/04/20 08:05:02;;;;;;;;;;;10.90;99.90;;;;;;5369783;26;19941;-82
2024/04/20 08:07:27;;;;;;;;;;;11.20;99.90;;;;;;5376819;26;19930;-83
2024/04/20 08:09:53;;;;;;;;;;;11.60;39.60;;;;;;5383508;26;19929;-82
2024/04/20 08:12:18;;;;;;;;;;;11.90;1.00;;;;;;5374639;26;19930;-82
2024/04/20 08:14:44;;;;;;;;;;;12.00;1.00;;;;;;5386841;26;19930;-82
2024/04/20 08:17:12;;;;;;;;;;;12.30;1.00;;;;;;5386792;26;19929;-83
2024/04/20 08:19:38;;;;;;;;;;;12.70;1.00;;;;;;5383741;26;20259;-83
2024/04/20 08:22:03;;;;;;;;;;;13.00;1.00;;;;;;5384060;26;19929;-82
2024/04/20 08:24:29;;;;;;;;;;;12.90;1.00;;;;;;5369225;26;20003;-82
2024/04/20 08:26:55;;;;;;;;;;;12.90;1.00;;;;;;5379446;26;19975;-82
2024/04/20 08:29:20;;;;;;;;;;;12.80;1.00;;;;;;5383384;26;19941;-84
2024/04/20 08:31:46;;;;;;;;;;;12.80;99.90;;;;;;5390365;26;19936;-85
2024/04/20 08:34:11;;;;;;;;;;;12.70;99.90;;;;;;5384317;26;19937;-83
2024/04/20 08:36:37;;;;;;;;;;;12.60;99.90;;;;;;5385111;26;20005;-83
2024/04/20 08:39:02;;;;;;;;;;;12.60;99.90;;;;;;5383751;26;19936;-82
2024/04/20 08:41:29;;;;;;;;;;;12.40;99.90;;;;;;5370511;26;19958;-82
2024/04/20 08:44:00;;;;;;;;;;;12.40;99.90;;;;;;5373627;26;19929;-84
2024/04/20 08:46:26;;;;;;;;;;;12.40;99.90;;;;;;5384207;26;19976;-82
2024/04/20 08:48:54;;;;;;;;;;;12.40;99.90;;;;;;5384909;26;19936;-81
2024/04/20 08:51:20;;;;;;;;;;;12.50;99.90;;;;;;5385526;26;19941;-83
2024/04/20 08:53:47;;;;;;;;;;;12.70;99.90;;;;;;5383992;26;19963;-81
2024/04/20 08:56:13;;;;;;;;;;;13.20;99.90;;;;;;5381286;26;19934;-82
2024/04/20 08:58:38;;;;;;;;;;;13.50;99.90;;;;;;5377743;26;19940;-82
2024/04/20 09:01:04;;;;;;;;;;;13.80;99.90;;;;;;5386883;26;19930;-84
2024/04/20 09:03:30;;;;;;;;;;;14.00;99.90;;;;;;5391406;26;19999;-84
2024/04/20 09:05:57;;;;;;;;;;;14.30;99.90;;;;;;5391539;26;19937;-84
2024/04/20 09:08:23;;;;;;;;;;;14.50;99.90;;;;;;5388184;26;19937;-83
2024/04/20 09:10:48;;;;;;;;;;;14.40;99.90;;;;;;5392940;26;20410;-82
2024/04/20 09:13:18;;;;;;;;;;;14.40;99.90;;;;;;5392165;26;19936;-83
2024/04/20 09:15:45;;;;;;;;;;;14.90;99.90;;;;;;5394313;26;19930;-82
2024/04/20 09:18:10;;;;;;;;;;;16.30;99.90;;;;;;5394486;26;20273;-84
2024/04/20 09:20:36;;;;;;;;;;;17.80;99.90;;;;;;5391726;26;19930;-82
2024/04/20 09:23:03;;;;;;;;;;;18.20;99.90;;;;;;5382602;26;19930;-82
2024/04/20 09:25:29;;;;;;;;;;;18.50;99.90;;;;;;5379619;26;19945;-82
2024/04/20 09:27:55;;;;;;;;;;;18.90;99.90;;;;;;5385072;26;20003;-85
2024/04/20 09:30:20;;;;;;;;;;;19.90;99.90;;;;;;5383342;26;19939;-81
2024/04/20 09:32:46;;;;;;;;;;;20.60;99.90;;;;;;5382460;26;19980;-82
2024/04/20 09:35:13;;;;;;;;;;;21.00;99.90;;;;;;5383368;26;19937;-83
2024/04/20 09:37:39;;;;;;;;;;;21.20;99.90;;;;;;5379877;26;20007;-83
2024/04/20 09:40:05;;;;;;;;;;;21.70;99.90;;;;;;5380409;26;19966;-81
2024/04/20 09:42:32;;;;;;;;;;;23.00;99.90;;;;;;5370361;26;20264;-80
2024/04/20 09:44:58;;;;;;;;;;;22.50;99.90;;;;;;5386928;26;19992;-84
2024/04/20 09:47:24;;;;;;;;;;;21.30;99.90;;;;;;5386137;26;19941;-84
2024/04/20 09:49:50;;;;;;;;;;;21.40;99.90;;;;;;5387560;26;20388;-81
2024/04/20 09:52:21;;;;;;;;;;;21.60;99.90;;;;;;5387616;26;19930;-83
2024/04/20 09:54:59;;;;;;;;;;;23.70;99.90;;;;;;5384380;26;19929;-82
2024/04/20 09:57:26;;;;;;;;;;;25.30;99.90;;;;;;5383470;26;19929;-82
2024/04/20 09:59:53;;;;;;;;;;;25.20;99.90;;;;;;5385717;26;20376;-79
2024/04/20 10:02:20;;;;;;;;;;;24.50;99.90;;;;;;5386803;26;19941;-82
2024/04/20 10:04:47;;;;;;;;;;;23.10;99.90;;;;;;5388829;26;19933;-81
2024/04/20 10:07:14;;;;;;;;;;;21.40;99.90;;;;;;5386026;26;19962;-80
2024/04/20 10:09:41;;;;;;;;;;;20.30;99.90;;;;;;5375202;26;19934;-81
2024/04/20 10:12:07;;;;;;;;;;;19.80;99.90;;;;;;5387143;26;19936;-81
2024/04/20 10:14:32;;;;;;;;;;;19.60;99.90;;;;;;5387572;26;19930;-81
2024/04/20 10:17:00;;;;;;;;;;;20.00;99.90;;;;;;5394214;26;19936;-84
2024/04/20 10:19:34;;;;;;;;;;;21.40;99.90;;;;;;5379275;26;20404;-85
2024/04/20 10:22:00;;;;;;;;;;;22.30;99.90;;;;;;5396584;26;19945;-84
2024/04/20 10:24:25;;;;;;;;;;;23.60;99.90;;;;;;5386215;26;19941;-84
2024/04/20 10:26:56;;;;;;;;;;;23.20;99.90;;;;;;5367912;26;19930;-81
2024/04/20 10:29:21;;;;;;;;;;;22.10;99.90;;;;;;5379698;26;19929;-83
2024/04/20 10:31:55;;;;;;;;;;;21.10;99.90;;;;;;5388959;26;19936;-82
2024/04/20 10:34:24;;;;;;;;;;;20.70;99.90;;;;;;5391633;26;19976;-84
2024/04/20 10:36:55;;;;;;;;;;;20.80;99.90;;;;;;5368319;26;19937;-81
2024/04/20 10:39:25;;;;;;;;;;;20.80;99.90;;;;;;5380475;26;21031;-82
2024/04/20 10:41:51;;;;;;;;;;;21.30;99.90;;;;;;5379487;26;19933;-81
2024/04/20 10:44:16;;;;;;;;;;;21.70;99.90;;;;;;5382600;26;19936;-81
2024/04/20 10:46:49;;;;;;;;;;;21.90;99.90;;;;;;5378764;26;19981;-82
2024/04/20 10:49:15;;;;;;;;;;;21.60;99.90;;;;;;5378518;26;19941;-83
2024/04/20 10:51:54;;;;;;;;;;;21.30;99.90;;;;;;5382263;26;19930;-81
2024/04/20 10:54:19;;;;;;;;;;;20.70;99.90;;;;;;5368935;26;20148;-83
2024/04/20 10:56:45;;;;;;;;;;;20.40;99.90;;;;;;5372471;26;19930;-81
2024/04/20 10:59:11;;;;;;;;;;;19.80;99.90;;;;;;5388604;26;19940;-81
2024/04/20 11:01:39;;;;;;;;;;;19.40;99.90;;;;;;5388991;26;19941;-81
2024/04/20 11:04:04;;;;;;;;;;;19.40;99.90;;;;;;5389641;26;19938;-81
2024/04/20 11:06:30;;;;;;;;;;;19.70;99.90;;;;;;5390428;26;19937;-82
2024/04/20 11:08:55;;;;;;;;;;;19.90;99.90;;;;;;5385948;26;19936;-80
2024/04/20 11:11:20;;;;;;;;;;;19.60;99.90;;;;;;5384967;26;19930;-82
2024/04/20 11:13:56;;;;;;;;;;;19.30;99.90;;;;;;5392606;26;19940;-82
2024/04/20 11:16:21;;;;;;;;;;;19.10;99.90;;;;;;5393225;26;19930;-82
2024/04/20 11:18:47;;;;;;;;;;;19.20;99.90;;;;;;5392263;26;19962;-81
2024/04/20 11:21:13;;;;;;;;;;;19.40;99.90;;;;;;5393329;26;19936;-82
2024/04/20 11:23:40;;;;;;;;;;;19.50;99.90;;;;;;5384389;26;19999;-82
2024/04/20 11:26:05;;;;;;;;;;;20.70;99.90;;;;;;5385190;26;19937;-83
2024/04/20 11:28:31;;;;;;;;;;;22.10;99.90;;;;;;5378457;26;19961;-83
2024/04/20 11:30:57;;;;;;;;;;;23.20;99.90;;;;;;5391356;26;19936;-83
2024/04/20 11:33:22;;;;;;;;;;;24.40;99.90;;;;;;5386195;26;19995;-82
2024/04/20 11:35:49;;;;;;;;;;;25.20;99.90;;;;;;5388183;26;19941;-82
2024/04/20 11:38:14;;;;;;;;;;;25.60;99.90;;;;;;5383700;26;19937;-80
2024/04/20 11:40:50;;;;;;;;;;;24.20;99.90;;;;;;5429629;21;19929;-83
2024/04/20 11:43:20;;;;;;;;;;;22.40;99.90;;;;;;5447392;26;19936;-84
2024/04/20 11:45:46;;;;;;;;;;;21.00;99.90;;;;;;5449145;26;19928;-84
2024/04/20 11:48:12;;;;;;;;;;;19.90;99.90;;;;;;5451723;26;19939;-85
2024/04/20 11:50:40;;;;;;;;;;;18.90;99.90;;;;;;5431241;26;19929;-85
2024/04/20 11:55:49;;;;;;;;;;;17.20;99.90;;;;;;5434652;26;20321;-83
2024/04/20 11:58:15;;;;;;;;;;;16.20;99.90;;;;;;5436814;26;19929;-83
2024/04/20 12:00:41;;;;;;;;;;;15.70;99.90;;;;;;5425639;26;19932;-84
2024/04/20 12:03:06;;;;;;;;;;;16.70;99.90;;;;;;5418901;26;20027;-83
2024/04/20 12:05:32;;;;;;;;;;;17.10;99.90;;;;;;5411669;26;20103;-84
2024/04/20 12:07:57;;;;;;;;;;;17.90;99.90;;;;;;5454487;26;20451;-84
2024/04/20 12:10:25;;;;;;;;;;;19.10;99.90;;;;;;5428726;26;19928;-85
2024/04/20 12:12:50;;;;;;;;;;;19.30;99.90;;;;;;5433438;26;19929;-82
2024/04/20 12:15:16;;;;;;;;;;;18.40;99.90;;;;;;5429347;26;20439;-84
2024/04/20 12:17:41;;;;;;;;;;;17.60;99.90;;;;;;5453409;26;19935;-84
2024/04/20 12:20:07;;;;;;;;;;;17.10;99.90;;;;;;5432624;26;19939;-84
2024/04/20 12:22:33;;;;;;;;;;;17.10;99.90;;;;;;5425331;26;19998;-84
2024/04/20 12:24:58;;;;;;;;;;;18.10;99.90;;;;;;5420210;26;19944;-84
2024/04/20 12:27:24;;;;;;;;;;;18.80;99.90;;;;;;5405456;26;19930;-84
2024/04/20 12:29:52;;;;;;;;;;;19.50;99.90;;;;;;5412351;26;20344;-81
2024/04/20 12:32:17;;;;;;;;;;;19.90;99.90;;;;;;5420900;26;19937;-83
2024/04/20 12:34:43;;;;;;;;;;;20.30;99.90;;;;;;5408231;26;19957;-84
2024/04/20 12:37:09;;;;;;;;;;;20.90;99.90;;;;;;5442411;26;19957;-85
2024/04/20 12:39:34;;;;;;;;;;;21.50;99.90;;;;;;5400875;26;19961;-84
2024/04/20 12:42:02;;;;;;;;;;;21.80;99.90;;;;;;5458396;26;19998;-85
2024/04/20 12:44:28;;;;;;;;;;;21.80;99.90;;;;;;5444085;26;20026;-85
2024/04/20 12:46:54;;;;;;;;;;;21.90;99.90;;;;;;5459384;26;19929;-85
2024/04/20 12:49:19;;;;;;;;;;;21.70;99.90;;;;;;5440608;26;19935;-86
2024/04/20 12:51:45;;;;;;;;;;;21.30;99.90;;;;;;5435463;26;19941;-84
2024/04/20 12:54:10;;;;;;;;;;;20.40;99.90;;;;;;5421910;26;19929;-83
2024/04/20 12:56:36;;;;;;;;;;;19.60;99.90;;;;;;5408001;26;19929;-83
2024/04/20 12:59:02;;;;;;;;;;;19.60;99.90;;;;;;5431178;26;19929;-83
2024/04/20 13:01:27;;;;;;;;;;;19.40;99.90;;;;;;5449633;26;19974;-83
2024/04/20 13:03:53;;;;;;;;;;;19.00;99.90;;;;;;5424505;26;19936;-84
2024/04/20 13:06:18;;;;;;;;;;;18.70;99.90;;;;;;5409633;26;19929;-85
2024/04/20 13:08:44;;;;;;;;;;;18.00;99.90;;;;;;5438319;26;19936;-85
2024/04/20 13:11:11;;;;;;;;;;;17.10;99.90;;;;;;5412961;26;19936;-83
2024/04/20 13:13:37;;;;;;;;;;;16.20;99.90;;;;;;5434146;26;19937;-84
2024/04/20 13:16:02;;;;;;;;;;;15.50;99.90;;;;;;5427194;26;19974;-84
2024/04/20 13:18:28;;;;;;;;;;;15.00;99.90;;;;;;5421700;26;19935;-84
2024/04/20 13:20:57;;;;;;;;;;;14.60;99.90;;;;;;5420198;26;19953;-83
2024/04/20 13:23:22;;;;;;;;;;;14.70;99.90;;;;;;5419703;26;19929;-84
2024/04/20 13:25:48;;;;;;;;;;;14.90;99.90;;;;;;5449355;26;19929;-82
2024/04/20 13:28:21;;;;;;;;;;;15.50;99.90;;;;;;5427452;26;19928;-83
2024/04/20 13:30:50;;;;;;;;;;;16.40;99.90;;;;;;5407202;26;19935;-84
2024/04/20 13:33:16;;;;;;;;;;;17.20;99.90;;;;;;5435775;26;19940;-84
2024/04/20 13:35:54;;;;;;;;;;;17.30;99.90;;;;;;5424497;26;19997;-85
2024/04/20 13:38:20;;;;;;;;;;;17.00;99.90;;;;;;5421642;26;19929;-80
2024/04/20 13:40:58;;;;;;;;;;;16.30;99.90;;;;;;5407613;26;19935;-83
2024/04/20 13:43:24;;;;;;;;;;;16.00;99.90;;;;;;5432690;26;19929;-84
2024/04/20 13:45:50;;;;;;;;;;;16.10;99.90;;;;;;5423862;26;19929;-84
2024/04/20 13:48:15;;;;;;;;;;;15.90;99.90;;;;;;5435516;26;19929;-84
2024/04/20 13:50:41;;;;;;;;;;;15.70;99.90;;;;;;5406508;26;19945;-83
2024/04/20 13:53:08;;;;;;;;;;;15.40;99.90;;;;;;5401780;26;19929;-82
2024/04/20 13:55:33;;;;;;;;;;;15.10;99.90;;;;;;5407222;26;19937;-84
2024/04/20 13:58:00;;;;;;;;;;;14.90;99.90;;;;;;5431718;26;20371;-82
2024/04/20 14:00:25;;;;;;;;;;;14.90;99.90;;;;;;5395617;26;19949;-82
2024/04/20 14:02:50;;;;;;;;;;;15.10;99.90;;;;;;5434135;26;19944;-84
2024/04/20 14:05:18;;;;;;;;;;;15.30;99.90;;;;;;5409619;26;19936;-81
2024/04/20 14:07:44;;;;;;;;;;;15.50;99.90;;;;;;5404053;26;21108;-83
2024/04/20 14:10:11;;;;;;;;;;;15.50;99.90;;;;;;5402092;26;20271;-83
2024/04/20 14:12:36;;;;;;;;;;;15.50;99.90;;;;;;5411783;26;19937;-83
2024/04/20 14:15:02;;;;;;;;;;;15.50;99.90;;;;;;5398563;26;19975;-83
2024/04/20 14:17:27;;;;;;;;;;;15.30;99.90;;;;;;5410015;26;19935;-81
2024/04/20 14:19:53;;;;;;;;;;;15.20;99.90;;;;;;5401263;26;19929;-82
2024/04/20 14:22:18;;;;;;;;;;;15.10;99.90;;;;;;5397352;26;19936;-83
2024/04/20 14:24:44;;;;;;;;;;;14.90;99.90;;;;;;5427994;26;20884;-81
2024/04/20 14:27:09;;;;;;;;;;;14.80;99.90;;;;;;5427480;26;19937;-83
2024/04/20 14:29:35;;;;;;;;;;;14.80;99.90;;;;;;5400451;26;19936;-83
2024/04/20 14:32:01;;;;;;;;;;;14.80;99.90;;;;;;5401825;26;19937;-83
2024/04/20 14:34:26;;;;;;;;;;;14.70;99.90;;;;;;5405691;26;19936;-81
2024/04/20 14:36:52;;;;;;;;;;;14.80;99.90;;;;;;5401917;26;19929;-84